createdAt,value
2023-01-02T05:00:28.982Z,0.00
2023-01-02T05:01:29.097Z,0.00
2023-01-02T05:02:29.037Z,0.00
2023-01-02T05:03:28.986Z,0.00
2023-01-02T05:04:29.874Z,0.00
2023-01-02T05:05:28.885Z,0.00
2023-01-02T05:06:28.866Z,0.00
2023-01-02T05:07:28.862Z,0.00
2023-01-02T05:08:28.838Z,0.00
2023-01-02T05:09:28.828Z,0.00
2023-01-02T05:10:28.830Z,0.00
2023-01-02T05:11:33.831Z,0.00
2023-01-02T05:12:28.819Z,0.00
2023-01-02T05:13:28.774Z,0.00
2023-01-02T05:14:28.761Z,0.00
2023-01-02T05:15:28.763Z,0.00
2023-01-02T05:16:28.828Z,0.00
2023-01-02T05:17:28.745Z,0.00
2023-01-02T05:18:28.721Z,0.00
2023-01-02T05:19:28.703Z,0.00
2023-01-02T05:20:28.694Z,0.00
2023-01-02T05:21:28.685Z,0.00
2023-01-02T05:22:33.704Z,0.00
2023-01-02T05:23:28.659Z,0.00
2023-01-02T05:24:28.645Z,0.00
2023-01-02T05:25:28.636Z,0.00
2023-01-02T05:26:28.631Z,0.00
2023-01-02T05:27:28.650Z,0.00
2023-01-02T05:28:31.240Z,0.00
2023-01-02T05:29:29.593Z,0.00
2023-01-02T05:30:28.598Z,0.00
2023-01-02T05:31:28.779Z,0.00
2023-01-02T05:32:28.618Z,0.00
2023-01-02T05:33:33.587Z,0.00
2023-01-02T05:34:28.554Z,0.00
2023-01-02T05:35:32.518Z,0.00
2023-01-02T05:36:28.518Z,0.00
2023-01-02T05:37:28.519Z,0.00
2023-01-02T05:38:28.513Z,0.00
2023-01-02T05:39:28.480Z,0.00
2023-01-02T05:40:28.492Z,0.00
2023-01-02T05:41:28.463Z,0.00
2023-01-02T05:42:29.441Z,0.00
2023-01-02T05:43:28.464Z,0.00
2023-01-02T05:44:33.443Z,0.00
2023-01-02T05:45:28.420Z,0.00
2023-01-02T05:46:28.468Z,0.00
2023-01-02T05:47:28.389Z,0.00
2023-01-02T05:48:28.402Z,0.00
2023-01-02T05:49:28.376Z,0.00
2023-01-02T05:50:28.368Z,0.00
2023-01-02T05:51:28.363Z,0.00
2023-01-02T05:52:28.345Z,0.00
2023-01-02T05:53:28.323Z,0.00
2023-01-02T05:54:28.344Z,0.00
2023-01-02T05:55:33.345Z,0.00
2023-01-02T05:56:28.318Z,0.00
2023-01-02T05:57:28.284Z,0.00
2023-01-02T05:58:28.270Z,0.00
2023-01-02T05:59:28.270Z,0.00
2023-01-02T06:00:28.250Z,0.00
2023-01-02T06:01:28.339Z,0.00
2023-01-02T06:02:28.331Z,0.00
2023-01-02T06:03:28.303Z,0.00
2023-01-02T06:04:28.234Z,0.00
2023-01-02T06:05:28.189Z,0.00
2023-01-02T06:06:33.208Z,0.00
2023-01-02T06:07:28.169Z,0.00
2023-01-02T06:08:28.154Z,0.00
2023-01-02T06:09:28.160Z,0.00
2023-01-02T06:10:28.136Z,0.00
2023-01-02T06:11:28.130Z,0.00
2023-01-02T06:12:28.131Z,0.00
2023-01-02T06:13:28.114Z,0.00
2023-01-02T06:14:28.102Z,0.00
2023-01-02T06:15:28.098Z,0.00
2023-01-02T06:16:28.123Z,0.00
2023-01-02T06:17:33.085Z,0.00
2023-01-02T06:18:28.044Z,0.00
2023-01-02T06:19:28.058Z,0.00
2023-01-02T06:20:28.176Z,0.00
2023-01-02T06:21:28.017Z,0.00
2023-01-02T06:22:28.007Z,0.00
2023-01-02T06:23:28.013Z,0.00
2023-01-02T06:24:27.996Z,0.00
2023-01-02T06:25:27.975Z,0.00
2023-01-02T06:26:34.202Z,0.00
2023-01-02T06:27:28.944Z,0.00
2023-01-02T06:28:32.955Z,0.00
2023-01-02T06:29:27.943Z,0.00
2023-01-02T06:30:27.909Z,0.00
2023-01-02T06:31:27.962Z,0.00
2023-01-02T06:32:27.887Z,0.00
2023-01-02T06:33:27.882Z,0.00
2023-01-02T06:34:27.875Z,0.00
2023-01-02T06:35:27.869Z,0.00
2023-01-02T06:36:27.887Z,0.00
2023-01-02T06:37:27.837Z,0.00
2023-01-02T06:38:27.826Z,0.00
2023-01-02T06:39:32.864Z,0.00
2023-01-02T06:40:27.806Z,0.00
2023-01-02T06:41:27.788Z,0.00
2023-01-02T06:42:27.793Z,0.00
2023-01-02T06:43:27.777Z,0.00
2023-01-02T06:44:27.789Z,0.00
2023-01-02T06:45:27.846Z,0.00
2023-01-02T06:46:27.737Z,0.00
2023-01-02T06:47:27.768Z,0.00
2023-01-02T06:48:27.708Z,0.00
2023-01-02T06:49:27.716Z,0.00
2023-01-02T06:50:35.125Z,0.00
2023-01-02T06:51:27.722Z,0.00
2023-01-02T06:52:27.686Z,0.00
2023-01-02T06:53:27.677Z,0.00
2023-01-02T06:54:27.644Z,0.00
2023-01-02T06:55:27.655Z,4.00
2023-01-02T06:56:27.622Z,4.00
2023-01-02T06:57:27.609Z,4.00
2023-01-02T06:58:27.611Z,4.00
2023-01-02T06:59:27.590Z,4.00
2023-01-02T07:00:27.598Z,4.00
2023-01-02T07:01:32.740Z,0.00
2023-01-02T07:02:27.711Z,4.00
2023-01-02T07:03:27.547Z,8.00
2023-01-02T07:04:27.561Z,8.00
2023-01-02T07:05:27.531Z,8.00
2023-01-02T07:06:27.505Z,12.00
2023-01-02T07:07:27.505Z,12.00
2023-01-02T07:08:27.650Z,16.00
2023-01-02T07:09:27.487Z,16.00
2023-01-02T07:10:27.484Z,20.00
2023-01-02T07:11:27.460Z,28.00
2023-01-02T07:12:32.464Z,28.00
2023-01-02T07:13:27.433Z,36.00
2023-01-02T07:14:27.424Z,36.00
2023-01-02T07:15:27.427Z,44.00
2023-01-02T07:16:27.462Z,48.00
2023-01-02T07:17:27.388Z,52.00
2023-01-02T07:18:27.375Z,60.00
2023-01-02T07:19:27.367Z,60.00
2023-01-02T07:20:27.363Z,64.00
2023-01-02T07:21:27.346Z,68.00
2023-01-02T07:22:27.336Z,76.00
2023-01-02T07:23:32.359Z,84.00
2023-01-02T07:24:27.315Z,88.00
2023-01-02T07:25:27.309Z,96.00
2023-01-02T07:26:27.297Z,96.00
2023-01-02T07:27:27.282Z,96.00
2023-01-02T07:28:27.271Z,96.00
2023-01-02T07:29:27.258Z,96.00
2023-01-02T07:30:27.269Z,96.00
2023-01-02T07:31:27.268Z,104.00
2023-01-02T07:32:27.879Z,116.00
2023-01-02T07:33:28.222Z,136.00
2023-01-02T07:34:32.221Z,160.00
2023-01-02T07:35:27.211Z,176.00
2023-01-02T07:36:27.179Z,184.00
2023-01-02T07:37:27.168Z,188.00
2023-01-02T07:38:27.160Z,196.00
2023-01-02T07:39:27.263Z,236.00
2023-01-02T07:40:31.922Z,296.00
2023-01-02T07:41:28.145Z,364.00
2023-01-02T07:42:27.109Z,404.00
2023-01-02T07:43:27.100Z,420.00
2023-01-02T07:44:27.097Z,432.00
2023-01-02T07:45:32.157Z,472.00
2023-01-02T07:46:27.100Z,532.00
2023-01-02T07:47:27.060Z,576.00
2023-01-02T07:48:27.049Z,572.00
2023-01-02T07:49:27.092Z,572.00
2023-01-02T07:50:27.023Z,596.00
2023-01-02T07:51:28.009Z,636.00
2023-01-02T07:52:26.999Z,684.00
2023-01-02T07:53:26.982Z,748.00
2023-01-02T07:54:26.972Z,808.00
2023-01-02T07:55:26.993Z,872.00
2023-01-02T07:56:31.971Z,944.00
2023-01-02T07:57:26.931Z,1004.00
2023-01-02T07:58:26.974Z,1060.00
2023-01-02T07:59:26.918Z,1092.00
2023-01-02T08:00:26.925Z,1108.00
2023-01-02T08:01:27.036Z,1124.00
2023-01-02T08:02:27.047Z,1124.00
2023-01-02T08:03:27.885Z,1120.00
2023-01-02T08:04:26.983Z,1136.00
2023-01-02T08:05:26.858Z,1156.00
2023-01-02T08:06:26.834Z,1172.00
2023-01-02T08:07:31.873Z,1184.00
2023-01-02T08:08:26.806Z,1180.00
2023-01-02T08:09:26.796Z,1160.00
2023-01-02T08:10:26.792Z,1148.00
2023-01-02T08:11:26.793Z,1148.00
2023-01-02T08:12:26.762Z,1148.00
2023-01-02T08:13:26.752Z,1148.00
2023-01-02T08:14:26.776Z,1136.00
2023-01-02T08:15:26.738Z,1064.00
2023-01-02T08:16:26.786Z,988.00
2023-01-02T08:17:26.732Z,908.00
2023-01-02T08:18:31.717Z,820.00
2023-01-02T08:19:26.687Z,756.00
2023-01-02T08:20:26.764Z,740.00
2023-01-02T08:21:26.670Z,776.00
2023-01-02T08:22:27.656Z,852.00
2023-01-02T08:23:26.631Z,936.00
2023-01-02T08:24:26.646Z,1024.00
2023-01-02T08:25:26.627Z,1084.00
2023-01-02T08:26:26.624Z,1056.00
2023-01-02T08:27:26.636Z,972.00
2023-01-02T08:28:26.580Z,928.00
2023-01-02T08:29:31.586Z,996.00
2023-01-02T08:30:26.643Z,1064.00
2023-01-02T08:31:26.673Z,1084.00
2023-01-02T08:32:26.559Z,1076.00
2023-01-02T08:33:26.513Z,1040.00
2023-01-02T08:34:26.510Z,960.00
2023-01-02T08:35:37.989Z,916.00
2023-01-02T08:36:27.488Z,984.00
2023-01-02T08:37:26.467Z,1092.00
2023-01-02T08:38:26.470Z,1160.00
2023-01-02T08:39:26.483Z,1148.00
2023-01-02T08:40:31.494Z,1096.00
2023-01-02T08:41:26.427Z,1068.00
2023-01-02T08:42:26.435Z,1044.00
2023-01-02T08:43:26.439Z,1024.00
2023-01-02T08:44:26.391Z,944.00
2023-01-02T08:45:26.383Z,944.00
2023-01-02T08:46:26.453Z,988.00
2023-01-02T08:47:26.360Z,1004.00
2023-01-02T08:48:26.340Z,996.00
2023-01-02T08:49:26.330Z,984.00
2023-01-02T08:50:26.348Z,1016.00
2023-01-02T08:51:31.337Z,1136.00
2023-01-02T08:52:26.295Z,1244.00
2023-01-02T08:53:26.283Z,1208.00
2023-01-02T08:54:26.278Z,1128.00
2023-01-02T08:55:26.256Z,1084.00
2023-01-02T08:56:26.489Z,1080.00
2023-01-02T08:57:26.231Z,1084.00
2023-01-02T08:58:26.228Z,1064.00
2023-01-02T08:59:26.329Z,1088.00
2023-01-02T09:00:26.276Z,1152.00
2023-01-02T09:01:27.360Z,1220.00
2023-01-02T09:02:31.369Z,1260.00
2023-01-02T09:03:26.202Z,1240.00
2023-01-02T09:04:26.163Z,1216.00
2023-01-02T09:05:26.143Z,1240.00
2023-01-02T09:06:26.146Z,1284.00
2023-01-02T09:07:26.135Z,1272.00
2023-01-02T09:08:26.110Z,1268.00
2023-01-02T09:09:26.095Z,1276.00
2023-01-02T09:10:26.090Z,1268.00
2023-01-02T09:11:26.111Z,1288.00
2023-01-02T09:12:26.064Z,1328.00
2023-01-02T09:13:31.088Z,1324.00
2023-01-02T09:14:26.059Z,1280.00
2023-01-02T09:15:26.227Z,1328.00
2023-01-02T09:16:26.065Z,1508.00
2023-01-02T09:17:26.010Z,1788.00
2023-01-02T09:18:29.578Z,2048.00
2023-01-02T09:19:25.985Z,2252.00
2023-01-02T09:20:25.976Z,2384.00
2023-01-02T09:21:25.959Z,2440.00
2023-01-02T09:22:25.980Z,2424.00
2023-01-02T09:23:25.947Z,2472.00
2023-01-02T09:24:30.954Z,2528.00
2023-01-02T09:25:25.929Z,2512.00
2023-01-02T09:26:25.910Z,2556.00
2023-01-02T09:27:25.905Z,2660.00
2023-01-02T09:28:25.885Z,2900.00
2023-01-02T09:29:25.872Z,3060.00
2023-01-02T09:30:25.862Z,3224.00
2023-01-02T09:31:25.953Z,3300.00
2023-01-02T09:32:25.854Z,3348.00
2023-01-02T09:33:25.826Z,3472.00
2023-01-02T09:34:25.833Z,3452.00
2023-01-02T09:35:30.826Z,4276.00
2023-01-02T09:36:25.802Z,3876.00
2023-01-02T09:37:25.812Z,3900.00
2023-01-02T09:38:25.780Z,3864.00
2023-01-02T09:39:32.139Z,3744.00
2023-01-02T09:40:26.748Z,3900.00
2023-01-02T09:41:25.746Z,3644.00
2023-01-02T09:42:25.732Z,4336.00
2023-01-02T09:43:25.732Z,5076.00
2023-01-02T09:44:25.704Z,4176.00
2023-01-02T09:45:25.714Z,4096.00
2023-01-02T09:46:30.768Z,4192.00
2023-01-02T09:47:25.681Z,5244.00
2023-01-02T09:48:25.653Z,5060.00
2023-01-02T09:49:25.653Z,4696.00
2023-01-02T09:50:25.631Z,4248.00
2023-01-02T09:51:25.637Z,5204.00
2023-01-02T09:52:25.624Z,4060.00
2023-01-02T09:53:25.690Z,5000.00
2023-01-02T09:54:25.587Z,4404.00
2023-01-02T09:55:25.586Z,4068.00
2023-01-02T09:56:30.435Z,3892.00
2023-01-02T09:57:31.581Z,3348.00
2023-01-02T09:58:25.539Z,3032.00
2023-01-02T09:59:25.529Z,2600.00
2023-01-02T10:00:25.520Z,2600.00
2023-01-02T10:01:25.533Z,2320.00
2023-01-02T10:02:25.569Z,2220.00
2023-01-02T10:03:25.615Z,2076.00
2023-01-02T10:04:25.531Z,2368.00
2023-01-02T10:05:25.479Z,2540.00
2023-01-02T10:06:25.467Z,3348.00
2023-01-02T10:07:25.541Z,4152.00
2023-01-02T10:08:32.553Z,4228.00
2023-01-02T10:09:25.420Z,4628.00
2023-01-02T10:10:25.430Z,5268.00
2023-01-02T10:11:25.473Z,5520.00
2023-01-02T10:12:25.391Z,5676.00
2023-01-02T10:13:44.279Z,5608.00
2023-01-02T10:14:34.808Z,4648.00
2023-01-02T10:15:26.367Z,4740.00
2023-01-02T10:16:25.454Z,4732.00
2023-01-02T10:17:25.336Z,5316.00
2023-01-02T10:18:25.358Z,5380.00
2023-01-02T10:19:30.345Z,4832.00
2023-01-02T10:20:25.321Z,5116.00
2023-01-02T10:21:25.282Z,5100.00
2023-01-02T10:22:25.271Z,5060.00
2023-01-02T10:23:25.290Z,4980.00
2023-01-02T10:24:25.268Z,4960.00
2023-01-02T10:25:25.269Z,5604.00
2023-01-02T10:26:25.304Z,5740.00
2023-01-02T10:27:25.276Z,4432.00
2023-01-02T10:28:25.239Z,4520.00
2023-01-02T10:29:25.198Z,4756.00
2023-01-02T10:30:30.240Z,4816.00
2023-01-02T10:31:25.268Z,5128.00
2023-01-02T10:32:25.181Z,6096.00
2023-01-02T10:33:25.181Z,7512.00
2023-01-02T10:34:25.209Z,7708.00
2023-01-02T10:35:25.140Z,7328.00
2023-01-02T10:36:25.112Z,7132.00
2023-01-02T10:37:25.140Z,7920.00
2023-01-02T10:38:25.099Z,8224.00
2023-01-02T10:39:25.085Z,8008.00
2023-01-02T10:40:25.064Z,7320.00
2023-01-02T10:41:30.076Z,6872.00
2023-01-02T10:42:25.085Z,7220.00
2023-01-02T10:43:25.056Z,7108.00
2023-01-02T10:44:25.030Z,6384.00
2023-01-02T10:45:26.006Z,5560.00
2023-01-02T10:46:25.156Z,4976.00
2023-01-02T10:47:24.989Z,5104.00
2023-01-02T10:48:24.991Z,5128.00
2023-01-02T10:49:25.046Z,4560.00
2023-01-02T10:50:24.971Z,4024.00
2023-01-02T10:51:24.945Z,3916.00
2023-01-02T10:52:29.974Z,4240.00
2023-01-02T10:53:24.943Z,4240.00
2023-01-02T10:54:24.921Z,4352.00
2023-01-02T10:55:24.892Z,4348.00
2023-01-02T10:56:24.904Z,5060.00
2023-01-02T10:57:24.888Z,4864.00
2023-01-02T10:58:24.896Z,4488.00
2023-01-02T10:59:24.909Z,4864.00
2023-01-02T11:00:28.109Z,5028.00
2023-01-02T11:01:24.918Z,5376.00
2023-01-02T11:02:24.937Z,5424.00
2023-01-02T11:03:29.834Z,5028.00
2023-01-02T11:04:24.804Z,4748.00
2023-01-02T11:05:24.777Z,4508.00
2023-01-02T11:06:31.170Z,4672.00
2023-01-02T11:07:25.765Z,4536.00
2023-01-02T11:08:24.752Z,4580.00
2023-01-02T11:09:24.749Z,4816.00
2023-01-02T11:10:24.738Z,3980.00
2023-01-02T11:11:24.723Z,4052.00
2023-01-02T11:12:27.489Z,3740.00
2023-01-02T11:13:24.708Z,3212.00
2023-01-02T11:14:29.711Z,2824.00
2023-01-02T11:15:24.674Z,2796.00
2023-01-02T11:16:24.733Z,2812.00
2023-01-02T11:17:24.648Z,2776.00
2023-01-02T11:18:24.642Z,2572.00
2023-01-02T11:19:29.590Z,2552.00
2023-01-02T11:20:25.655Z,2052.00
2023-01-02T11:21:24.596Z,1952.00
2023-01-02T11:22:24.613Z,2076.00
2023-01-02T11:23:24.594Z,2316.00
2023-01-02T11:24:24.616Z,2604.00
2023-01-02T11:25:29.573Z,2792.00
2023-01-02T11:26:24.541Z,2700.00
2023-01-02T11:27:24.535Z,2560.00
2023-01-02T11:28:24.522Z,2608.00
2023-01-02T11:29:24.518Z,2140.00
2023-01-02T11:30:24.495Z,1860.00
2023-01-02T11:31:24.550Z,1788.00
2023-01-02T11:32:24.486Z,1856.00
2023-01-02T11:33:24.462Z,1856.00
2023-01-02T11:34:24.502Z,1776.00
2023-01-02T11:35:24.439Z,1656.00
2023-01-02T11:36:29.454Z,1676.00
2023-01-02T11:37:24.413Z,1688.00
2023-01-02T11:38:29.744Z,1524.00
2023-01-02T11:39:25.405Z,1432.00
2023-01-02T11:40:24.420Z,1448.00
2023-01-02T11:41:24.392Z,1500.00
2023-01-02T11:42:24.363Z,1588.00
2023-01-02T11:43:24.354Z,1680.00
2023-01-02T11:44:24.350Z,1720.00
2023-01-02T11:45:24.387Z,1716.00
2023-01-02T11:46:24.315Z,1688.00
2023-01-02T11:47:29.333Z,1676.00
2023-01-02T11:48:24.319Z,1588.00
2023-01-02T11:49:24.295Z,1700.00
2023-01-02T11:50:24.277Z,1736.00
2023-01-02T11:51:24.256Z,1716.00
2023-01-02T11:52:24.267Z,1764.00
2023-01-02T11:53:24.234Z,1968.00
2023-01-02T11:54:24.264Z,2212.00
2023-01-02T11:55:24.219Z,1964.00
2023-01-02T11:56:24.214Z,1760.00
2023-01-02T11:57:24.188Z,1568.00
2023-01-02T11:58:29.213Z,1376.00
2023-01-02T11:59:24.188Z,1304.00
2023-01-02T12:00:24.165Z,1332.00
2023-01-02T12:01:24.276Z,1332.00
2023-01-02T12:02:24.205Z,1380.00
2023-01-02T12:03:24.233Z,1676.00
2023-01-02T12:04:24.137Z,1856.00
2023-01-02T12:05:24.105Z,1800.00
2023-01-02T12:06:24.103Z,1684.00
2023-01-02T12:07:24.079Z,1900.00
2023-01-02T12:08:24.064Z,1464.00
2023-01-02T12:09:29.112Z,1372.00
2023-01-02T12:10:24.059Z,1480.00
2023-01-02T12:11:24.037Z,1444.00
2023-01-02T12:12:24.020Z,1224.00
2023-01-02T12:13:24.039Z,1116.00
2023-01-02T12:14:23.995Z,992.00
2023-01-02T12:15:24.014Z,916.00
2023-01-02T12:16:24.022Z,1020.00
2023-01-02T12:17:23.985Z,1032.00
2023-01-02T12:18:24.014Z,1000.00
2023-01-02T12:19:23.993Z,1088.00
2023-01-02T12:20:28.970Z,1284.00
2023-01-02T12:21:23.931Z,1252.00
2023-01-02T12:22:23.904Z,1036.00
2023-01-02T12:23:23.909Z,924.00
2023-01-02T12:24:23.883Z,884.00
2023-01-02T12:25:23.903Z,980.00
2023-01-02T12:26:23.859Z,1056.00
2023-01-02T12:27:23.862Z,1028.00
2023-01-02T12:28:23.842Z,1100.00
2023-01-02T12:29:46.147Z,1136.00
2023-01-02T12:30:24.823Z,1152.00
2023-01-02T12:31:28.863Z,1136.00
2023-01-02T12:32:23.851Z,1028.00
2023-01-02T12:33:23.794Z,956.00
2023-01-02T12:34:23.784Z,960.00
2023-01-02T12:35:23.771Z,964.00
2023-01-02T12:36:23.750Z,896.00
2023-01-02T12:37:23.750Z,888.00
2023-01-02T12:38:26.241Z,896.00
2023-01-02T12:39:24.729Z,928.00
2023-01-02T12:40:23.722Z,892.00
2023-01-02T12:41:23.719Z,896.00
2023-01-02T12:42:28.702Z,860.00
2023-01-02T12:43:23.669Z,888.00
2023-01-02T12:44:27.205Z,924.00
2023-01-02T12:45:24.658Z,912.00
2023-01-02T12:46:23.698Z,884.00
2023-01-02T12:47:24.618Z,880.00
2023-01-02T12:48:23.616Z,876.00
2023-01-02T12:49:23.595Z,888.00
2023-01-02T12:50:23.620Z,876.00
2023-01-02T12:51:23.697Z,964.00
2023-01-02T12:52:23.602Z,1028.00
2023-01-02T12:53:28.587Z,996.00
2023-01-02T12:54:23.547Z,996.00
2023-01-02T12:55:23.544Z,1064.00
2023-01-02T12:56:23.543Z,1116.00
2023-01-02T12:57:23.536Z,1144.00
2023-01-02T12:58:23.502Z,1232.00
2023-01-02T12:59:23.485Z,1348.00
2023-01-02T13:00:23.480Z,1460.00
2023-01-02T13:01:23.576Z,1456.00
2023-01-02T13:02:23.630Z,1436.00
2023-01-02T13:03:23.489Z,1332.00
2023-01-02T13:04:28.474Z,1140.00
2023-01-02T13:05:23.421Z,968.00
2023-01-02T13:06:45.405Z,856.00
2023-01-02T13:07:24.406Z,768.00
2023-01-02T13:08:23.382Z,748.00
2023-01-02T13:09:23.560Z,732.00
2023-01-02T13:10:23.398Z,752.00
2023-01-02T13:11:23.365Z,756.00
2023-01-02T13:12:24.337Z,776.00
2023-01-02T13:13:23.493Z,948.00
2023-01-02T13:14:23.316Z,1008.00
2023-01-02T13:15:28.348Z,1012.00
2023-01-02T13:16:25.661Z,1156.00
2023-01-02T13:17:23.281Z,1184.00
2023-01-02T13:18:24.271Z,1104.00
2023-01-02T13:19:23.273Z,1408.00
2023-01-02T13:20:23.255Z,1868.00
2023-01-02T13:21:23.249Z,2244.00
2023-01-02T13:22:23.223Z,2272.00
2023-01-02T13:23:23.212Z,2160.00
2023-01-02T13:24:23.204Z,1912.00
2023-01-02T13:25:23.219Z,1764.00
2023-01-02T13:26:28.239Z,1860.00
2023-01-02T13:27:23.165Z,2016.00
2023-01-02T13:28:24.698Z,1804.00
2023-01-02T13:29:23.164Z,1440.00
2023-01-02T13:30:23.137Z,1292.00
2023-01-02T13:32:24.189Z,1324.00
2023-01-02T13:33:23.117Z,1188.00
2023-01-02T13:34:23.082Z,1076.00
2023-01-02T13:35:23.078Z,1152.00
2023-01-02T13:36:23.088Z,1260.00
2023-01-02T13:37:28.077Z,1292.00
2023-01-02T13:38:23.053Z,1352.00
2023-01-02T13:39:23.059Z,1420.00
2023-01-02T13:40:23.030Z,1360.00
2023-01-02T13:41:23.033Z,1304.00
2023-01-02T13:42:22.996Z,1272.00
2023-01-02T13:43:22.989Z,1100.00
2023-01-02T13:44:22.987Z,940.00
2023-01-02T13:45:23.092Z,884.00
2023-01-02T13:46:53.557Z,908.00
2023-01-02T13:47:31.677Z,896.00
2023-01-02T13:48:28.978Z,800.00
2023-01-02T13:49:22.949Z,780.00
2023-01-02T13:50:22.909Z,820.00
2023-01-02T13:51:22.918Z,808.00
2023-01-02T13:52:22.884Z,852.00
2023-01-02T13:53:22.874Z,664.00
2023-01-02T13:54:22.867Z,568.00
2023-01-02T13:55:22.849Z,588.00
2023-01-02T13:56:22.836Z,584.00
2023-01-02T13:57:22.846Z,488.00
2023-01-02T13:58:22.818Z,468.00
2023-01-02T13:59:41.596Z,540.00
2023-01-02T14:00:23.787Z,560.00
2023-01-02T14:01:22.941Z,580.00
2023-01-02T14:02:23.007Z,636.00
2023-01-02T14:03:22.912Z,624.00
2023-01-02T14:04:22.741Z,576.00
2023-01-02T14:05:22.733Z,512.00
2023-01-02T14:06:22.719Z,552.00
2023-01-02T14:07:22.730Z,528.00
2023-01-02T14:08:22.716Z,512.00
2023-01-02T14:09:22.699Z,572.00
2023-01-02T14:10:27.700Z,724.00
2023-01-02T14:11:22.662Z,584.00
2023-01-02T14:12:22.660Z,420.00
2023-01-02T14:13:22.640Z,332.00
2023-01-02T14:14:22.632Z,288.00
2023-01-02T14:15:22.615Z,300.00
2023-01-02T14:16:22.635Z,308.00
2023-01-02T14:17:22.660Z,264.00
2023-01-02T14:18:22.580Z,272.00
2023-01-02T14:19:22.588Z,336.00
2023-01-02T14:20:22.567Z,344.00
2023-01-02T14:21:27.565Z,396.00
2023-01-02T14:22:22.548Z,468.00
2023-01-02T14:23:22.530Z,504.00
2023-01-02T14:24:28.778Z,480.00
2023-01-02T14:25:23.503Z,428.00
2023-01-02T14:26:22.490Z,408.00
2023-01-02T14:27:22.479Z,460.00
2023-01-02T14:28:22.485Z,460.00
2023-01-02T14:29:22.451Z,400.00
2023-01-02T14:30:22.438Z,404.00
2023-01-02T14:31:22.559Z,352.00
2023-01-02T14:32:27.618Z,328.00
2023-01-02T14:33:22.407Z,336.00
2023-01-02T14:34:22.391Z,360.00
2023-01-02T14:35:22.391Z,372.00
2023-01-02T14:36:26.197Z,372.00
2023-01-02T14:37:22.359Z,372.00
2023-01-02T14:38:22.365Z,336.00
2023-01-02T14:39:22.340Z,300.00
2023-01-02T14:40:22.332Z,280.00
2023-01-02T14:41:22.311Z,296.00
2023-01-02T14:42:27.640Z,308.00
2023-01-02T14:43:28.344Z,308.00
2023-01-02T14:44:22.276Z,296.00
2023-01-02T14:45:22.268Z,296.00
2023-01-02T14:46:22.317Z,340.00
2023-01-02T14:47:22.246Z,396.00
2023-01-02T14:48:28.640Z,444.00
2023-01-02T14:49:25.892Z,396.00
2023-01-02T14:50:23.224Z,308.00
2023-01-02T14:51:22.198Z,320.00
2023-01-02T14:52:22.183Z,296.00
2023-01-02T14:53:22.532Z,252.00
2023-01-02T14:54:27.192Z,228.00
2023-01-02T14:55:22.152Z,204.00
2023-01-02T14:56:22.142Z,180.00
2023-01-02T14:57:22.127Z,160.00
2023-01-02T14:58:22.130Z,152.00
2023-01-02T14:59:22.103Z,176.00
2023-01-02T15:00:22.118Z,160.00
2023-01-02T15:01:43.096Z,172.00
2023-01-02T15:02:23.330Z,216.00
2023-01-02T15:03:22.348Z,220.00
2023-01-02T15:04:22.067Z,168.00
2023-01-02T15:05:27.066Z,204.00
2023-01-02T15:06:22.025Z,268.00
2023-01-02T15:07:22.017Z,316.00
2023-01-02T15:08:22.035Z,312.00
2023-01-02T15:09:21.991Z,320.00
2023-01-02T15:10:21.999Z,248.00
2023-01-02T15:11:21.994Z,220.00
2023-01-02T15:12:21.964Z,232.00
2023-01-02T15:13:21.942Z,184.00
2023-01-02T15:14:24.028Z,112.00
2023-01-02T15:15:21.961Z,76.00
2023-01-02T15:16:26.996Z,64.00
2023-01-02T15:17:21.905Z,56.00
2023-01-02T15:18:21.893Z,68.00
2023-01-02T15:19:21.888Z,72.00
2023-01-02T15:20:21.880Z,52.00
2023-01-02T15:21:24.526Z,52.00
2023-01-02T15:22:21.850Z,44.00
2023-01-02T15:23:21.826Z,40.00
2023-01-02T15:24:21.833Z,32.00
2023-01-02T15:25:21.803Z,28.00
2023-01-02T15:26:33.585Z,24.00
2023-01-02T15:27:27.803Z,24.00
2023-01-02T15:28:21.769Z,20.00
2023-01-02T15:29:21.823Z,20.00
2023-01-02T15:30:21.749Z,20.00
2023-01-02T15:31:21.769Z,16.00
2023-01-02T15:32:22.727Z,12.00
2023-01-02T15:33:21.723Z,12.00
2023-01-02T15:34:21.746Z,16.00
2023-01-02T15:35:21.707Z,12.00
2023-01-02T15:36:21.699Z,12.00
2023-01-02T15:37:21.665Z,8.00
2023-01-02T15:38:26.678Z,8.00
2023-01-02T15:39:21.661Z,8.00
2023-01-02T15:40:21.641Z,8.00
2023-01-02T15:41:21.631Z,8.00
2023-01-02T15:42:21.615Z,8.00
2023-01-02T15:43:21.597Z,8.00
2023-01-02T15:44:21.598Z,4.00
2023-01-02T15:45:21.576Z,12.00
2023-01-02T15:46:21.621Z,8.00
2023-01-02T15:47:27.633Z,8.00
2023-01-02T15:48:22.546Z,4.00
2023-01-02T15:49:26.563Z,8.00
2023-01-02T15:50:21.574Z,8.00
2023-01-02T15:51:39.715Z,4.00
2023-01-02T15:52:22.513Z,4.00
2023-01-02T15:53:21.486Z,4.00
2023-01-02T15:54:21.491Z,4.00
2023-01-02T15:55:21.457Z,4.00
2023-01-02T15:56:21.456Z,4.00
2023-01-02T15:57:21.433Z,0.00
2023-01-02T15:58:22.429Z,0.00
2023-01-02T15:59:22.427Z,0.00
2023-01-02T16:00:26.432Z,0.00
2023-01-02T16:01:21.590Z,0.00
2023-01-02T16:02:21.572Z,0.00
2023-01-02T16:03:21.399Z,0.00
2023-01-02T16:04:21.365Z,0.00
2023-01-02T16:05:21.346Z,0.00
2023-01-02T16:06:21.329Z,0.00
2023-01-02T16:07:21.333Z,0.00
2023-01-02T16:08:21.425Z,0.00
2023-01-02T16:09:21.309Z,0.00
2023-01-02T16:10:21.285Z,0.00
2023-01-02T16:11:26.307Z,0.00
2023-01-02T16:12:21.302Z,0.00
2023-01-02T16:13:21.249Z,0.00
2023-01-02T16:14:21.252Z,0.00
2023-01-02T16:15:21.228Z,0.00
2023-01-02T16:16:21.268Z,0.00
2023-01-02T16:17:21.212Z,0.00
2023-01-02T16:18:21.221Z,0.00
2023-01-02T16:19:21.198Z,0.00
2023-01-02T16:20:21.175Z,0.00
2023-01-02T16:21:21.186Z,0.00
2023-01-02T16:22:26.171Z,0.00
2023-01-02T16:23:21.150Z,0.00
2023-01-02T16:24:21.161Z,0.00
2023-01-02T16:25:21.187Z,0.00
2023-01-02T16:26:21.107Z,0.00
2023-01-02T16:27:21.092Z,0.00
2023-01-02T16:28:34.659Z,0.00
2023-01-02T16:29:22.089Z,0.00
2023-01-02T16:30:21.543Z,0.00
2023-01-02T16:31:21.108Z,0.00
2023-01-02T16:32:21.040Z,0.00
2023-01-02T16:33:26.060Z,0.00
2023-01-02T16:34:21.021Z,0.00
2023-01-02T16:35:21.024Z,0.00
2023-01-02T16:36:20.995Z,0.00
2023-01-02T16:37:20.978Z,0.00
2023-01-02T16:38:20.979Z,0.00
2023-01-02T16:39:20.960Z,0.00
2023-01-02T16:40:21.041Z,0.00
2023-01-02T16:41:21.938Z,0.00
2023-01-02T16:42:20.926Z,0.00
2023-01-02T16:43:20.912Z,0.00
2023-01-02T16:44:26.934Z,0.00
2023-01-02T16:45:20.904Z,0.00
2023-01-02T16:46:20.922Z,0.00
2023-01-02T16:47:20.906Z,0.00
2023-01-02T16:48:20.861Z,0.00
2023-01-02T16:49:20.848Z,0.00
2023-01-02T16:50:20.858Z,0.00
2023-01-02T16:51:20.822Z,0.00
2023-01-02T16:52:20.812Z,0.00
2023-01-02T16:53:20.807Z,0.00
2023-01-02T16:54:20.793Z,0.00
2023-01-02T16:55:25.832Z,0.00
2023-01-02T16:56:20.767Z,0.00
2023-01-02T16:57:20.756Z,0.00
2023-01-02T16:58:20.756Z,0.00
2023-01-02T16:59:20.770Z,0.00
2023-01-02T17:00:20.755Z,0.00
2023-01-02T17:01:20.910Z,0.00
2023-01-02T17:02:20.750Z,0.00
2023-01-02T17:03:20.738Z,0.00
2023-01-02T17:04:20.698Z,0.00
2023-01-02T17:05:20.875Z,0.00
2023-01-02T17:06:25.679Z,0.00
2023-01-02T17:07:22.589Z,0.00
2023-01-02T17:08:20.650Z,0.00
2023-01-02T17:09:20.638Z,0.00
2023-01-02T17:10:20.636Z,0.00
2023-01-02T17:11:20.623Z,0.00
2023-01-02T17:12:20.616Z,0.00
2023-01-02T17:13:20.611Z,0.00
2023-01-02T17:14:20.581Z,0.00
2023-01-02T17:15:20.555Z,0.00
2023-01-02T17:16:20.622Z,0.00
2023-01-02T17:17:25.557Z,0.00
2023-01-02T17:18:20.520Z,0.00
2023-01-02T17:19:20.512Z,0.00
2023-01-02T17:20:20.498Z,0.00
2023-01-02T17:21:20.522Z,0.00
2023-01-02T17:22:20.491Z,0.00
2023-01-02T17:23:20.475Z,0.00
2023-01-02T17:24:20.459Z,0.00
2023-01-02T17:25:20.461Z,0.00
2023-01-02T17:26:20.458Z,0.00
2023-01-02T17:27:20.536Z,0.00
2023-01-02T17:28:25.431Z,0.00
2023-01-02T17:29:20.413Z,0.00
2023-01-02T17:30:20.381Z,0.00
2023-01-02T17:31:25.460Z,0.00
2023-01-02T17:32:21.399Z,0.00
2023-01-02T17:33:20.363Z,0.00
2023-01-02T17:34:20.346Z,0.00
2023-01-02T17:35:20.340Z,0.00
2023-01-02T17:36:20.349Z,0.00
2023-01-02T17:37:20.313Z,0.00